メインページ
METAR-TAF:

METAR-TAF

空港 :

マル・デル・プラタ, アルゼンチン

緯度: 37-56S, 経度: 057-35W, 海抜: 18m

現時点の気象観測

当レポートは25分前の21:00(UTC)に作成
北/北西の風 10kt
気温 15°C
湿度 67%
気圧 1022 hPa
視程10km以上
1,500メートル以下は雲なし、積乱雲なし

METAR: SAZM 162100Z 34010KT CAVOK 15/09 Q1022

時間: 18:25 (21:25 UTC)

予報

当レポートは4時間25分前の17:00(UTC)に作成
予報は16日の 18時(UTC)から 17日の 18時(UTC)まで有効
北/北西の風 20kt
視程10km以上
1,500メートル以下は雲なし、積乱雲なし
16日の 21時(UTC)から 17日の 00時(UTC)まで一時的に
北/北西の風 15kt、最大25ktの突風を伴う
17日の 12時(UTC)から 17日の 15時(UTC)まで徐々に
の風 15kt

TAF: SAZM 161700Z 1618/1718 34020KT CAVOK TX18/1718Z TN09/1710Z TEMPO 1621/1700 34015G25KT BECMG 1712/1715 36015KT

4,000以上の空港の気象観測と天気予報(METAR報とTAF報)

利用可能な観測所は地図上に黄色い丸と赤い丸で示す。

丸の上にカーソルを重ねると観測所名を参照できる。

次にクリックすると気象観測と天気予報を参照できる。

マップの切り替え:黒色「×」印の緑ボタンをクリックして拡大、「-」印の緑ボタンをクリックして縮小、緑色の三角印をクリックして隣りの地図に切り替え


METAR-TAF: